createdAt,value
2023-03-29T00:02:59.351Z,47.77
2023-03-29T00:06:05.538Z,46.25
2023-03-29T00:09:09.627Z,45.37
2023-03-29T00:12:11.980Z,45.78
2023-03-29T00:15:14.257Z,46.58
2023-03-29T00:18:16.540Z,47.14
2023-03-29T00:21:18.523Z,47.53
2023-03-29T00:24:21.457Z,49.00
2023-03-29T00:27:23.615Z,50.09
2023-03-29T00:30:25.905Z,50.79
2023-03-29T00:33:27.904Z,51.38
2023-03-29T00:36:30.303Z,52.01
2023-03-29T00:39:32.501Z,53.17
2023-03-29T00:42:35.009Z,53.07
2023-03-29T00:45:37.139Z,52.70
2023-03-29T00:48:39.438Z,52.72
2023-03-29T00:51:42.625Z,52.82
2023-03-29T00:54:46.001Z,52.39
2023-03-29T00:57:49.338Z,51.78
2023-03-29T01:00:58.660Z,52.14
2023-03-29T01:04:04.554Z,51.99
2023-03-29T01:07:09.544Z,52.47
2023-03-29T01:10:18.159Z,52.10
2023-03-29T01:13:26.266Z,52.36
2023-03-29T01:16:30.266Z,52.13
2023-03-29T01:19:37.512Z,52.58
2023-03-29T01:22:49.096Z,52.72
2023-03-29T01:26:04.798Z,52.53
2023-03-29T01:29:10.078Z,53.35
2023-03-29T01:32:19.876Z,53.46
2023-03-29T01:35:25.017Z,52.78
2023-03-29T01:38:30.531Z,52.89
2023-03-29T01:41:35.609Z,53.61
2023-03-29T01:44:52.852Z,53.41
2023-03-29T01:48:01.273Z,53.21
2023-03-29T01:51:13.330Z,53.75
2023-03-29T01:54:19.104Z,54.64
2023-03-29T01:57:21.714Z,54.02
2023-03-29T02:00:27.560Z,54.92
2023-03-29T02:03:31.061Z,55.76
2023-03-29T02:06:34.113Z,56.47
2023-03-29T02:09:37.714Z,56.79
2023-03-29T02:12:40.381Z,57.49
2023-03-29T02:15:44.430Z,57.73
2023-03-29T02:18:48.593Z,58.25
2023-03-29T02:22:04.257Z,59.53
2023-03-29T02:25:09.418Z,59.64
2023-03-29T02:28:12.861Z,59.72
2023-03-29T02:31:24.801Z,59.95
2023-03-29T02:34:28.206Z,60.99
2023-03-29T02:37:31.436Z,61.14
2023-03-29T02:40:37.570Z,60.80
2023-03-29T02:43:41.005Z,60.85
2023-03-29T02:46:43.945Z,62.46
2023-03-29T02:49:47.151Z,62.04
2023-03-29T02:52:59.255Z,60.22
2023-03-29T02:56:02.265Z,60.02
2023-03-29T02:59:04.770Z,60.45
2023-03-29T03:02:07.232Z,60.88
2023-03-29T03:05:09.928Z,61.01
2023-03-29T03:08:12.578Z,60.16
2023-03-29T03:11:15.300Z,61.03
2023-03-29T03:14:19.127Z,60.47
2023-03-29T03:17:21.510Z,59.35
2023-03-29T03:20:24.035Z,59.70
2023-03-29T03:23:26.720Z,59.79
2023-03-29T03:26:30.082Z,59.32
2023-03-29T03:29:32.502Z,60.06
2023-03-29T03:32:35.913Z,60.41
2023-03-29T03:35:39.528Z,60.38
2023-03-29T03:38:43.933Z,60.12
2023-03-29T03:41:46.472Z,60.52
2023-03-29T03:44:50.367Z,60.14
2023-03-29T03:47:54.061Z,59.76
2023-03-29T03:50:58.509Z,60.60
2023-03-29T03:54:01.193Z,60.71
2023-03-29T03:57:08.767Z,60.95
2023-03-29T04:00:21.449Z,61.01
2023-03-29T04:03:24.964Z,61.14
2023-03-29T04:06:30.687Z,61.58
2023-03-29T04:09:38.088Z,61.81
2023-03-29T04:12:41.596Z,61.56
2023-03-29T04:15:46.169Z,60.91
2023-03-29T04:18:49.729Z,61.82
2023-03-29T04:21:52.711Z,61.59
2023-03-29T04:24:55.179Z,61.02
2023-03-29T04:27:58.639Z,61.04
2023-03-29T04:31:02.789Z,60.93
2023-03-29T04:34:05.867Z,60.94
2023-03-29T04:37:10.580Z,60.19
2023-03-29T04:40:15.061Z,61.64
2023-03-29T04:43:18.622Z,61.19
2023-03-29T04:46:21.978Z,61.36
2023-03-29T04:49:26.182Z,61.39
2023-03-29T04:52:33.053Z,61.79
2023-03-29T04:55:36.116Z,60.42
2023-03-29T04:58:39.226Z,60.19
2023-03-29T05:01:41.576Z,60.34
2023-03-29T05:04:44.339Z,59.95
2023-03-29T05:07:46.683Z,58.23
2023-03-29T05:10:50.979Z,58.53
2023-03-29T05:13:55.585Z,57.73
2023-03-29T05:16:58.816Z,55.94
2023-03-29T05:20:01.356Z,55.98
2023-03-29T05:23:04.207Z,55.42
2023-03-29T05:26:13.985Z,54.94
2023-03-29T05:29:17.162Z,53.21
2023-03-29T05:32:20.692Z,52.86
2023-03-29T05:35:25.499Z,52.58
2023-03-29T05:38:27.760Z,51.62
2023-03-29T05:41:30.640Z,51.54
2023-03-29T05:44:35.309Z,51.30
2023-03-29T05:47:39.009Z,51.49
2023-03-29T05:50:42.786Z,51.87
2023-03-29T05:53:47.056Z,52.12
2023-03-29T05:56:49.191Z,51.00
2023-03-29T05:59:51.686Z,50.33
2023-03-29T06:02:59.297Z,49.54
2023-03-29T06:06:10.102Z,49.25
2023-03-29T06:09:12.476Z,48.77
2023-03-29T06:12:15.058Z,48.23
2023-03-29T06:15:17.785Z,48.59
2023-03-29T06:18:20.772Z,48.13
2023-03-29T06:21:23.996Z,47.51
2023-03-29T06:24:27.127Z,48.89
2023-03-29T06:27:29.750Z,47.56
2023-03-29T06:30:34.520Z,47.27
2023-03-29T06:33:38.143Z,47.19
2023-03-29T06:36:42.470Z,46.46
2023-03-29T06:39:45.522Z,47.25
2023-03-29T06:42:57.914Z,46.99
2023-03-29T06:46:01.906Z,46.20
2023-03-29T06:49:09.876Z,45.46
2023-03-29T06:52:13.084Z,44.77
2023-03-29T06:55:17.806Z,44.41
2023-03-29T06:58:19.931Z,42.89
2023-03-29T07:01:22.918Z,44.32
2023-03-29T07:04:25.912Z,42.62
2023-03-29T07:07:44.057Z,42.21
2023-03-29T07:10:48.804Z,41.13
2023-03-29T07:13:54.450Z,41.44
2023-03-29T07:16:58.391Z,41.66
2023-03-29T07:20:02.156Z,42.18
2023-03-29T07:23:05.537Z,42.03
2023-03-29T07:26:08.163Z,41.17
2023-03-29T07:29:11.796Z,41.78
2023-03-29T07:32:15.087Z,41.08
2023-03-29T07:35:21.765Z,39.67
2023-03-29T07:38:25.278Z,38.41
2023-03-29T07:41:27.767Z,38.05
2023-03-29T07:44:32.921Z,38.46
2023-03-29T07:47:35.302Z,39.82
2023-03-29T07:50:37.931Z,39.05
2023-03-29T07:53:40.160Z,37.96
2023-03-29T07:56:47.629Z,38.22
2023-03-29T07:59:49.963Z,37.97
2023-03-29T08:02:53.379Z,38.64
2023-03-29T08:05:56.142Z,37.54
2023-03-29T08:12:32.864Z,36.56
2023-03-29T08:15:38.076Z,36.13
2023-03-29T08:18:46.393Z,35.23
2023-03-29T08:21:49.626Z,35.36
2023-03-29T08:24:58.073Z,35.23
2023-03-29T08:28:03.484Z,33.81
2023-03-29T08:31:13.097Z,33.47
2023-03-29T08:34:17.020Z,33.28
2023-03-29T08:37:21.327Z,31.88
2023-03-29T08:40:28.323Z,31.86
2023-03-29T08:43:44.614Z,33.56
2023-03-29T08:47:04.464Z,32.05
2023-03-29T08:50:09.269Z,31.90
2023-03-29T08:53:17.059Z,32.96
2023-03-29T08:56:27.121Z,32.60
2023-03-29T08:59:33.411Z,31.58
2023-03-29T09:02:37.498Z,31.72
2023-03-29T09:05:43.577Z,31.69
2023-03-29T09:08:47.574Z,32.48
2023-03-29T09:12:01.886Z,32.51
2023-03-29T09:15:06.954Z,32.09
2023-03-29T09:18:19.012Z,30.63
2023-03-29T09:21:26.752Z,36.09
2023-03-29T09:24:33.439Z,32.14
2023-03-29T09:27:35.894Z,33.60
2023-03-29T09:30:41.603Z,32.65
2023-03-29T09:33:49.730Z,37.11
2023-03-29T09:36:53.853Z,31.55
2023-03-29T09:39:57.618Z,30.53
2023-03-29T09:43:04.181Z,30.63
2023-03-29T09:46:16.058Z,31.57
2023-03-29T09:49:21.755Z,31.15
2023-03-29T09:52:24.727Z,30.74
2023-03-29T09:55:30.219Z,31.13
2023-03-29T09:58:32.966Z,31.94
2023-03-29T10:01:37.990Z,32.80
2023-03-29T10:04:43.205Z,31.97
2023-03-29T10:07:55.384Z,31.88
2023-03-29T10:10:59.947Z,30.74
2023-03-29T10:14:12.327Z,30.68
2023-03-29T10:17:25.569Z,30.59
2023-03-29T10:20:28.139Z,31.02
2023-03-29T10:23:32.486Z,31.64
2023-03-29T10:26:38.952Z,31.22
2023-03-29T10:29:43.076Z,31.84
2023-03-29T10:32:56.830Z,31.56
2023-03-29T10:36:03.714Z,32.55
2023-03-29T10:39:07.065Z,33.05
2023-03-29T10:42:11.564Z,32.12
2023-03-29T10:45:31.737Z,33.94
2023-03-29T10:48:37.593Z,32.76
2023-03-29T10:51:44.081Z,33.08
2023-03-29T10:54:48.097Z,33.68
2023-03-29T10:58:01.335Z,34.39
2023-03-29T11:01:06.259Z,35.14
2023-03-29T11:04:23.859Z,34.87
2023-03-29T11:07:29.600Z,34.76
2023-03-29T11:10:31.757Z,35.41
2023-03-29T11:13:42.514Z,34.46
2023-03-29T11:16:47.730Z,35.30
2023-03-29T11:20:03.021Z,34.26
2023-03-29T11:23:07.616Z,35.76
2023-03-29T11:26:15.791Z,36.07
2023-03-29T11:29:28.163Z,35.15
2023-03-29T11:33:21.365Z,36.65
2023-03-29T11:36:55.295Z,34.95
2023-03-29T11:40:21.221Z,34.95
2023-03-29T11:44:25.114Z,34.94
2023-03-29T11:47:30.733Z,35.76
2023-03-29T11:50:46.088Z,34.13
2023-03-29T11:53:58.953Z,33.72
2023-03-29T11:57:20.167Z,33.20
2023-03-29T12:00:25.514Z,33.05
2023-03-29T12:03:47.360Z,34.91
2023-03-29T12:07:03.181Z,34.77
2023-03-29T12:10:16.317Z,34.24
2023-03-29T12:13:32.388Z,34.98
2023-03-29T12:16:39.625Z,34.84
2023-03-29T12:19:45.062Z,35.54
2023-03-29T12:22:49.164Z,34.03
2023-03-29T12:25:54.552Z,34.16
2023-03-29T12:29:05.433Z,35.16
2023-03-29T12:32:26.217Z,34.23
2023-03-29T12:35:48.607Z,35.72
2023-03-29T12:38:56.184Z,35.92
2023-03-29T12:42:14.628Z,36.03
2023-03-29T12:45:20.021Z,35.17
2023-03-29T12:48:25.656Z,35.07
2023-03-29T12:51:32.497Z,35.86
2023-03-29T12:54:35.004Z,35.02
2023-03-29T12:57:42.100Z,34.29
2023-03-29T13:00:45.285Z,35.78
2023-03-29T13:03:49.140Z,35.52
2023-03-29T13:07:04.924Z,36.18
2023-03-29T13:10:25.354Z,37.22
2023-03-29T13:13:33.705Z,36.97
2023-03-29T13:16:35.964Z,37.35
2023-03-29T13:19:48.901Z,36.25
2023-03-29T13:22:50.950Z,36.50
2023-03-29T13:25:53.289Z,38.98
2023-03-29T13:29:04.730Z,36.17
2023-03-29T13:32:19.375Z,37.27
2023-03-29T13:35:21.588Z,35.73
2023-03-29T13:38:28.754Z,35.65
2023-03-29T13:41:40.037Z,36.58
2023-03-29T13:44:49.036Z,35.78
2023-03-29T13:51:13.613Z,36.09
2023-03-29T13:54:21.274Z,35.71
2023-03-29T13:57:25.556Z,35.88
2023-03-29T14:01:00.352Z,36.86
2023-03-29T14:04:04.998Z,35.73
2023-03-29T14:07:08.250Z,35.06
2023-03-29T14:10:13.855Z,36.79
2023-03-29T14:13:18.133Z,37.38
2023-03-29T14:16:21.234Z,37.49
2023-03-29T14:19:32.058Z,37.71
2023-03-29T14:22:34.697Z,36.60
2023-03-29T14:25:37.702Z,36.63
2023-03-29T14:28:47.327Z,37.82
2023-03-29T14:31:50.207Z,38.25
2023-03-29T14:34:53.031Z,38.81
2023-03-29T14:37:55.262Z,38.54
2023-03-29T14:40:59.317Z,38.54
2023-03-29T14:44:02.990Z,38.28
2023-03-29T14:47:06.320Z,38.09
2023-03-29T14:50:26.735Z,37.82
2023-03-29T14:53:31.950Z,37.98
2023-03-29T14:56:34.227Z,37.74
2023-03-29T14:59:38.800Z,37.71
2023-03-29T15:02:49.052Z,37.66
2023-03-29T15:06:03.814Z,38.45
2023-03-29T15:09:07.089Z,38.42
2023-03-29T15:12:15.516Z,38.21
2023-03-29T15:15:17.763Z,37.37
2023-03-29T15:18:22.119Z,36.58
2023-03-29T15:21:27.986Z,37.41
2023-03-29T15:24:31.912Z,38.34
2023-03-29T15:27:41.828Z,39.21
2023-03-29T15:30:49.449Z,39.29
2023-03-29T15:34:06.237Z,40.03
2023-03-29T15:37:11.543Z,38.93
2023-03-29T15:40:17.214Z,39.15
2023-03-29T15:43:21.599Z,37.95
2023-03-29T15:46:23.847Z,39.65
2023-03-29T15:49:27.001Z,39.10
2023-03-29T15:52:29.297Z,38.81
2023-03-29T15:55:32.263Z,38.82
2023-03-29T15:58:35.493Z,39.93
2023-03-29T16:01:38.943Z,38.75
2023-03-29T16:04:41.457Z,39.12
2023-03-29T16:07:43.613Z,38.85
2023-03-29T16:10:46.043Z,39.24
2023-03-29T16:13:48.276Z,40.09
2023-03-29T16:16:52.115Z,39.97
2023-03-29T16:19:54.464Z,40.90
2023-03-29T16:22:56.961Z,42.08
2023-03-29T16:25:59.522Z,41.79
2023-03-29T16:29:02.200Z,42.22
2023-03-29T16:32:06.771Z,41.97
2023-03-29T16:35:24.734Z,42.51
2023-03-29T16:38:29.248Z,41.78
2023-03-29T16:41:32.403Z,42.08
2023-03-29T16:44:34.461Z,41.92
2023-03-29T16:47:36.928Z,42.34
2023-03-29T16:50:38.942Z,42.04
2023-03-29T16:53:41.963Z,42.70
2023-03-29T16:56:44.367Z,42.81
2023-03-29T16:59:47.758Z,42.90
2023-03-29T17:02:50.257Z,44.10
2023-03-29T17:05:53.737Z,44.18
2023-03-29T17:08:55.760Z,45.34
2023-03-29T17:11:58.275Z,46.54
2023-03-29T17:15:00.478Z,47.56
2023-03-29T17:18:03.480Z,48.40
2023-03-29T17:21:05.949Z,48.96
2023-03-29T17:24:10.171Z,49.04
2023-03-29T17:27:12.265Z,49.80
2023-03-29T17:30:15.358Z,50.51
2023-03-29T17:33:22.261Z,50.75
2023-03-29T17:36:25.981Z,51.38
2023-03-29T17:39:28.384Z,52.09
2023-03-29T17:42:30.802Z,52.20
2023-03-29T17:45:35.286Z,52.73
2023-03-29T17:48:39.242Z,53.11
2023-03-29T17:51:41.473Z,53.24
2023-03-29T17:54:44.256Z,53.16
2023-03-29T17:57:46.285Z,53.66
2023-03-29T18:00:49.033Z,53.18
2023-03-29T18:03:51.860Z,53.79
2023-03-29T18:06:54.956Z,54.35
2023-03-29T18:09:57.916Z,54.68
2023-03-29T18:13:00.573Z,54.49
2023-03-29T18:16:04.356Z,54.67
2023-03-29T18:19:07.238Z,55.33
2023-03-29T18:22:09.736Z,55.84
2023-03-29T18:25:11.924Z,55.49
2023-03-29T18:28:14.664Z,55.42
2023-03-29T18:31:17.042Z,55.66
2023-03-29T18:34:19.626Z,55.86
2023-03-29T18:37:22.183Z,56.53
2023-03-29T18:40:24.913Z,56.41
2023-03-29T18:43:27.197Z,56.48
2023-03-29T18:46:33.301Z,56.88
2023-03-29T18:49:36.768Z,57.41
2023-03-29T18:52:40.119Z,57.30
2023-03-29T18:55:45.349Z,58.44
2023-03-29T18:58:48.127Z,58.36
2023-03-29T19:01:50.320Z,58.65
2023-03-29T19:04:52.838Z,59.19
2023-03-29T19:07:55.247Z,60.02
2023-03-29T19:11:01.925Z,59.04
2023-03-29T19:14:04.570Z,59.48
2023-03-29T19:17:06.930Z,58.91
2023-03-29T19:20:10.184Z,59.51
2023-03-29T19:23:12.670Z,60.50
2023-03-29T19:26:15.364Z,60.78
2023-03-29T19:29:18.162Z,61.02
2023-03-29T19:32:20.275Z,61.91
2023-03-29T19:35:23.221Z,61.42
2023-03-29T19:38:25.735Z,61.09
2023-03-29T19:41:28.469Z,62.04
2023-03-29T19:44:30.714Z,62.93
2023-03-29T19:47:33.454Z,63.25
2023-03-29T19:50:38.609Z,63.39
2023-03-29T19:53:41.831Z,63.56
2023-03-29T19:56:44.293Z,63.87
2023-03-29T19:59:47.384Z,63.83
2023-03-29T20:02:49.950Z,63.87
2023-03-29T20:05:52.460Z,62.55
2023-03-29T20:08:56.855Z,63.85
2023-03-29T20:11:59.529Z,64.67
2023-03-29T20:15:01.826Z,64.77
2023-03-29T20:18:04.413Z,63.88
2023-03-29T20:21:08.303Z,64.29
2023-03-29T20:24:11.324Z,64.27
2023-03-29T20:27:13.862Z,63.90
2023-03-29T20:30:16.483Z,64.34
2023-03-29T20:33:19.707Z,64.97
2023-03-29T20:36:23.158Z,65.97
2023-03-29T20:39:26.055Z,65.35
2023-03-29T20:42:30.311Z,65.28
2023-03-29T20:45:42.785Z,64.50
2023-03-29T20:48:54.842Z,65.97
2023-03-29T20:51:59.601Z,65.40
2023-03-29T20:55:01.930Z,64.84
2023-03-29T20:58:04.306Z,65.04
2023-03-29T21:01:06.989Z,65.35
2023-03-29T21:04:10.771Z,65.88
2023-03-29T21:07:17.560Z,65.49
2023-03-29T21:10:19.631Z,65.25
2023-03-29T21:13:22.743Z,65.71
2023-03-29T21:16:25.374Z,64.50
2023-03-29T21:19:28.199Z,64.18
2023-03-29T21:22:31.595Z,64.24
2023-03-29T21:25:36.155Z,64.95
2023-03-29T21:28:38.284Z,64.49
2023-03-29T21:31:40.815Z,65.89
2023-03-29T21:34:42.991Z,65.56
2023-03-29T21:37:45.451Z,66.82
2023-03-29T21:40:47.436Z,68.40
2023-03-29T21:43:49.887Z,67.91
2023-03-29T21:46:52.297Z,68.45
2023-03-29T21:49:55.031Z,67.94
2023-03-29T21:52:57.363Z,67.12
2023-03-29T21:55:59.870Z,67.74
2023-03-29T21:59:01.887Z,67.50
2023-03-29T22:02:04.553Z,67.12
2023-03-29T22:05:07.633Z,68.05
2023-03-29T22:08:12.658Z,68.30
2023-03-29T22:11:15.607Z,68.98
2023-03-29T22:14:19.384Z,69.00
2023-03-29T22:17:22.990Z,70.51
2023-03-29T22:20:25.130Z,71.66
2023-03-29T22:23:27.782Z,71.94
2023-03-29T22:26:31.654Z,72.31
2023-03-29T22:29:34.260Z,72.42
2023-03-29T22:32:36.842Z,72.47
2023-03-29T22:35:39.384Z,72.43
2023-03-29T22:38:41.652Z,73.83
2023-03-29T22:41:44.050Z,73.53
2023-03-29T22:44:46.514Z,74.12
2023-03-29T22:47:49.042Z,74.31
2023-03-29T22:50:51.560Z,74.59
2023-03-29T22:53:53.989Z,75.10
2023-03-29T22:56:56.930Z,75.16
2023-03-29T22:59:59.470Z,75.21
2023-03-29T23:03:01.935Z,76.02
2023-03-29T23:06:04.510Z,76.44
2023-03-29T23:09:06.989Z,75.44
2023-03-29T23:12:09.791Z,75.32
2023-03-29T23:15:12.201Z,75.54
2023-03-29T23:18:18.242Z,74.83
2023-03-29T23:21:20.379Z,74.94
2023-03-29T23:24:23.490Z,75.70
2023-03-29T23:27:26.190Z,75.91
2023-03-29T23:30:29.820Z,76.27
2023-03-29T23:33:35.289Z,76.70
2023-03-29T23:36:38.392Z,76.61
2023-03-29T23:39:41.578Z,76.71
2023-03-29T23:42:45.082Z,77.34
2023-03-29T23:45:47.351Z,78.53
2023-03-29T23:48:50.814Z,78.03
2023-03-29T23:51:53.238Z,77.42
2023-03-29T23:54:56.202Z,77.15
2023-03-29T23:57:58.405Z,77.40
